Heathsville, Illinois
Current Conditions -  °F | °C
As of 2:55 PM on Thursday 27 Nov 2014 (Local Time) from KRSV Reporting Station
Light Snow Light Snow  
Wind Chill: 19°   Ceiling: 3600
Heat Index: 29°   Visibility: 4mi
Dew Point: 24°   Wind: 14mph
Humidity: 82%   Direction: 310°NW
Pressure: 30.43"   Gusts: NA
Location:  38.904°N, 87.665°W
Report Text: KRSV 272055Z AUTO 31012KT 4SM -SN SCT024 OVC036 M01/M04 A3043 RMK AO2 T10151042
Loading
Personal Weather Stations






























Interactive Weather Map New forecast layout! Learn more

10-Day Weather Forecast

Advertisements
Track Severe Weather on mobile